Aviation Digital Data Service (ADDS)

Output produced by TAFs form (2148 UTC 25 November 2014)
found at http://www.aviationweather.gov/adds/tafs/
 
KBJC 252047Z 27029G46KT 60SM FEW020 SCT060 BKN120 07/M09 A2986
KBJC 252037Z 2521/2618 27025G40KT P6SM FEW110 SCT140 BKN200 
     FM260000 30024G36KT P6SM SCT100 BKN140 
     FM260800 04010KT P6SM FEW020 BKN070 
     PROB30 2610/2613 2SM -SHSN BKN020 
     FM261500 28007KT P6SM FEW025 BKN060